KMNZ

Details ICAO KMNZ
Name HAMILTON MUNI
Region United States
Timezone America/Chicago (UTC-6.0)
Plans Departing 4
Arriving 2
Stats Elevation 1,299 ft / 396 m (AMSL)
Location 31.665927° -98.148638°
Runways 1
Magnetic Variation 4.085° E
Sunrise 2017-12-15 13:26:27 UTC / 2017-12-15 07:26:27 Local
Sunset 2017-12-15 23:32:06 UTC / 2017-12-15 17:32:06 Local
Advertisement - Login to hide

Runways

ID Width Length Bearing (true) Bearing (mag) Surface Threshold Offset Overrun Length
18 75 ft / 23 m 5,015 ft / 1,529 m 188.95° 184.87° Asphalt 0 ft / 0 m 0 ft / 0 m
36 75 ft / 23 m 5,015 ft / 1,529 m 8.95° 4.87° Asphalt 0 ft / 0 m 0 ft / 0 m

Map

Weather


0- 5 10 15 20 25 30 35+ Temperature / ° C

Clouds and Precipitation
Forecast for 2017-12-15 12:00 UTC. Updated an hour ago

Ground ~20,000 ft ~40,000 ft Winds

METAR

KMNZ 151235Z AUTO 32008KT 10SM CLR 02/M02 A3030 RMK AO2 T00201024

TAF

Not found

Frequencies

Unicom 122.70 MHz CTAF/UNICOM
Approach 120.07 MHz GRAY APP/DEP
Warning: Do not use this data for real-world aviation or navigation. No guarantee of current accuracy is given.